createdAt,value
2018-03-11T00:03:49.408Z,12.57
2018-03-11T00:08:53.880Z,12.97
2018-03-11T00:13:58.356Z,12.13
2018-03-11T00:19:02.797Z,11.60
2018-03-11T00:24:06.674Z,12.77
2018-03-11T00:29:10.529Z,13.53
2018-03-11T00:34:13.655Z,14.73
2018-03-11T00:39:18.118Z,14.90
2018-03-11T00:44:21.227Z,15.67
2018-03-11T00:49:24.736Z,15.27
2018-03-11T00:54:29.348Z,16.00
2018-03-11T00:59:32.835Z,16.00
2018-03-11T01:04:37.295Z,16.53
2018-03-11T01:09:41.915Z,16.77
2018-03-11T01:14:46.389Z,17.53
2018-03-11T01:19:49.485Z,18.87
2018-03-11T01:24:52.601Z,18.33
2018-03-11T01:29:55.696Z,17.87
2018-03-11T01:34:58.850Z,18.27
2018-03-11T01:40:01.936Z,18.67
2018-03-11T01:45:05.033Z,18.30
2018-03-11T01:50:08.120Z,19.63
2018-03-11T01:55:12.580Z,19.07
2018-03-11T02:00:15.677Z,19.03
2018-03-11T02:05:18.815Z,19.30
2018-03-11T02:10:22.320Z,18.63
2018-03-11T02:15:25.401Z,18.57
2018-03-11T02:20:28.989Z,18.90
2018-03-11T02:25:32.121Z,18.57
2018-03-11T02:30:35.206Z,19.67
2018-03-11T02:35:39.117Z,19.87
2018-03-11T02:40:42.255Z,19.60
2018-03-11T02:45:45.789Z,18.60
2018-03-11T02:50:50.287Z,20.90
2018-03-11T02:55:53.443Z,20.95
2018-03-11T03:00:57.340Z,22.35
2018-03-11T03:06:01.955Z,23.67
2018-03-11T03:11:05.818Z,24.90
2018-03-11T03:16:09.674Z,26.07
2018-03-11T03:21:14.499Z,25.67
2018-03-11T03:26:17.648Z,25.73
2018-03-11T03:31:20.733Z,24.80
2018-03-11T03:36:23.832Z,24.33
2018-03-11T03:41:27.703Z,26.87
2018-03-11T03:46:31.189Z,25.70
2018-03-11T03:51:34.290Z,26.50
2018-03-11T03:56:37.524Z,26.67
2018-03-11T04:01:41.979Z,26.77
2018-03-11T04:06:46.268Z,27.00
2018-03-11T04:11:49.384Z,29.53
2018-03-11T04:16:53.243Z,28.00
2018-03-11T04:21:56.751Z,26.60
2018-03-11T04:27:00.672Z,27.80
2018-03-11T04:32:04.509Z,28.10
2018-03-11T04:37:08.389Z,26.23
2018-03-11T04:42:12.997Z,25.70
2018-03-11T04:47:16.929Z,25.20
2018-03-11T04:52:20.808Z,25.23
2018-03-11T04:57:25.256Z,24.67
2018-03-11T05:02:29.707Z,24.73
2018-03-11T05:07:33.640Z,23.87
2018-03-11T05:12:36.761Z,24.73
2018-03-11T05:17:41.363Z,23.50
2018-03-11T05:22:44.453Z,24.13
2018-03-11T05:27:48.308Z,24.03
2018-03-11T05:32:51.451Z,24.17
2018-03-11T05:37:54.549Z,24.67
2018-03-11T05:42:59.018Z,23.70
2018-03-11T05:48:03.608Z,23.13
2018-03-11T05:53:06.768Z,23.87
2018-03-11T05:58:11.280Z,22.90
2018-03-11T06:03:15.809Z,23.10
2018-03-11T06:08:20.100Z,22.73
2018-03-11T06:13:23.286Z,22.20
2018-03-11T06:18:27.805Z,22.93
2018-03-11T06:23:32.413Z,24.27
2018-03-11T06:28:35.935Z,23.80
2018-03-11T06:33:41.553Z,24.83
2018-03-11T06:38:45.437Z,22.80
2018-03-11T06:43:49.876Z,21.87
2018-03-11T06:48:52.980Z,20.50
2018-03-11T06:53:56.087Z,19.23
2018-03-11T06:58:59.972Z,17.30
2018-03-11T07:04:03.087Z,17.10
2018-03-11T07:09:06.196Z,14.87
2018-03-11T07:14:09.304Z,14.67
2018-03-11T07:19:13.927Z,15.50
2018-03-11T07:24:17.446Z,15.63
2018-03-11T07:29:20.965Z,15.63
2018-03-11T07:34:25.195Z,14.97
2018-03-11T07:39:29.655Z,13.80
2018-03-11T07:44:34.864Z,14.37
2018-03-11T07:49:38.716Z,13.73
2018-03-11T07:54:42.220Z,13.23
2018-03-11T07:59:46.081Z,12.47
2018-03-11T08:04:50.698Z,12.17
2018-03-11T08:09:55.147Z,11.53
2018-03-11T08:14:58.263Z,10.70
2018-03-11T08:20:01.744Z,9.73
2018-03-11T08:25:05.241Z,10.30
2018-03-11T08:30:08.348Z,10.43
2018-03-11T08:35:11.515Z,10.80
2018-03-11T08:40:15.400Z,10.50
2018-03-11T08:45:18.543Z,10.80
2018-03-11T08:50:23.025Z,10.20
2018-03-11T08:55:26.129Z,9.80
2018-03-11T09:00:29.211Z,9.30
2018-03-11T09:05:33.069Z,8.37
2018-03-11T09:10:37.513Z,7.73
2018-03-11T09:15:41.377Z,7.60
2018-03-11T09:20:44.870Z,7.50
2018-03-11T09:25:49.472Z,7.20
2018-03-11T09:30:53.928Z,3.80
2018-03-11T09:35:57.029Z,3.57
2018-03-11T09:41:02.824Z,3.40
2018-03-11T09:46:05.979Z,3.10
2018-03-11T09:51:09.417Z,2.97
2018-03-11T09:56:12.513Z,2.90
2018-03-11T10:01:15.610Z,3.10
2018-03-11T10:06:19.478Z,3.20
2018-03-11T10:11:22.577Z,2.50
2018-03-11T10:16:27.012Z,2.60
2018-03-11T10:21:31.459Z,2.80
2018-03-11T10:26:34.557Z,2.80
2018-03-11T10:31:37.652Z,2.80
2018-03-11T10:36:41.525Z,2.60
2018-03-11T10:41:45.018Z,2.53
2018-03-11T10:46:48.537Z,2.22
2018-03-11T10:51:51.632Z,1.80
2018-03-11T10:56:54.730Z,1.80
2018-03-11T11:02:01.813Z,1.83
2018-03-11T11:07:04.917Z,1.67
2018-03-11T11:12:09.356Z,1.50
2018-03-11T11:17:12.844Z,1.83
2018-03-11T11:22:17.056Z,2.10
2018-03-11T11:27:21.492Z,1.90
2018-03-11T11:32:25.947Z,1.67
2018-03-11T11:37:29.488Z,1.70
2018-03-11T11:42:32.528Z,1.50
2018-03-11T11:47:36.971Z,1.73
2018-03-11T11:52:40.869Z,1.33
2018-03-11T11:57:43.969Z,1.80
2018-03-11T12:02:48.191Z,1.50
2018-03-11T12:07:52.621Z,1.77
2018-03-11T12:12:56.105Z,1.70
2018-03-11T12:17:59.184Z,1.90
2018-03-11T12:23:03.032Z,1.90
2018-03-11T12:28:06.532Z,1.87
2018-03-11T12:33:11.723Z,1.77
2018-03-11T12:38:16.186Z,1.70
2018-03-11T12:43:20.120Z,1.80
2018-03-11T12:48:24.324Z,2.00
2018-03-11T12:53:28.764Z,1.50
2018-03-11T12:58:32.272Z,1.60
2018-03-11T13:03:35.378Z,1.43
2018-03-11T13:08:39.232Z,1.60
2018-03-11T13:13:42.780Z,1.40
2018-03-11T13:18:45.861Z,1.73
2018-03-11T13:23:49.336Z,1.67
2018-03-11T13:28:52.429Z,1.80
2018-03-11T13:39:57.872Z,1.63
2018-03-11T13:45:14.068Z,1.63
2018-03-11T13:50:17.536Z,1.80
2018-03-11T13:55:21.376Z,1.90
2018-03-11T14:00:24.637Z,1.87
2018-03-11T14:05:28.041Z,1.70
2018-03-11T14:10:31.509Z,1.93
2018-03-11T14:15:34.579Z,1.77
2018-03-11T14:20:38.052Z,1.67
2018-03-11T14:25:42.659Z,2.27
2018-03-11T14:30:46.123Z,1.80
2018-03-11T14:35:50.719Z,2.10
2018-03-11T14:40:54.608Z,2.25
2018-03-11T14:45:58.444Z,2.10
2018-03-11T14:51:02.883Z,2.07
2018-03-11T14:56:05.965Z,2.43
2018-03-11T15:01:09.821Z,2.50
2018-03-11T15:06:14.243Z,2.08
2018-03-11T15:11:18.468Z,2.50
2018-03-11T15:16:21.943Z,2.20
2018-03-11T15:21:25.800Z,2.33
2018-03-11T15:26:29.287Z,2.30
2018-03-11T15:31:32.380Z,2.30
2018-03-11T15:36:37.044Z,2.10
2018-03-11T15:41:40.540Z,2.10
2018-03-11T15:46:44.017Z,2.00
2018-03-11T15:51:50.000Z,2.00
2018-03-11T15:56:53.512Z,2.00
2018-03-11T16:01:57.748Z,1.95
2018-03-11T16:07:00.859Z,2.20
2018-03-11T16:12:04.702Z,2.00
2018-03-11T16:17:09.280Z,2.03
2018-03-11T16:22:13.717Z,2.10
2018-03-11T16:27:17.229Z,1.80
2018-03-11T16:32:21.816Z,2.27
2018-03-11T16:37:25.680Z,1.60
2018-03-11T16:42:29.544Z,2.17
2018-03-11T16:47:33.404Z,2.00
2018-03-11T16:52:38.009Z,1.90
2018-03-11T16:57:41.141Z,1.80
2018-03-11T17:02:45.605Z,2.00
2018-03-11T17:07:48.693Z,1.60
2018-03-11T17:12:52.588Z,1.50
2018-03-11T17:17:55.918Z,1.47
2018-03-11T17:23:00.927Z,1.60
2018-03-11T17:28:04.763Z,1.70
2018-03-11T17:33:07.859Z,1.93
2018-03-11T17:38:12.114Z,2.00
2018-03-11T17:43:15.972Z,2.07
2018-03-11T17:48:19.135Z,1.73
2018-03-11T17:53:22.176Z,1.80
2018-03-11T18:03:34.471Z,2.10
2018-03-11T18:08:37.596Z,2.10
2018-03-11T18:13:41.088Z,2.00
2018-03-11T18:18:44.629Z,2.57
2018-03-11T18:23:48.705Z,2.50
2018-03-11T18:28:52.185Z,2.27
2018-03-11T18:33:56.392Z,2.70
2018-03-11T18:39:00.461Z,3.17
2018-03-11T18:44:03.552Z,2.90
2018-03-11T18:49:08.017Z,3.00
2018-03-11T18:54:12.451Z,3.20
2018-03-11T18:59:15.539Z,3.50
2018-03-11T19:04:19.980Z,3.50
2018-03-11T19:09:24.568Z,2.90
2018-03-11T19:14:27.649Z,3.50
2018-03-11T19:19:31.496Z,3.53
2018-03-11T19:24:35.354Z,3.57
2018-03-11T19:29:38.495Z,4.23
2018-03-11T19:34:41.625Z,4.70
2018-03-11T19:39:44.761Z,4.50
2018-03-11T19:44:48.557Z,4.87
2018-03-11T19:49:51.651Z,5.03
2018-03-11T19:54:56.109Z,4.20
2018-03-11T19:59:59.244Z,4.60
2018-03-11T20:05:02.380Z,4.60
2018-03-11T20:10:07.036Z,4.50
2018-03-11T20:15:11.265Z,4.60
2018-03-11T20:20:15.493Z,5.60
2018-03-11T20:25:19.360Z,6.47
2018-03-11T20:30:22.869Z,5.53
2018-03-11T20:35:27.134Z,6.60
2018-03-11T20:40:30.228Z,6.23
2018-03-11T20:45:34.513Z,4.63
2018-03-11T20:50:37.556Z,4.23
2018-03-11T20:55:40.645Z,4.40
2018-03-11T21:00:43.720Z,4.47
2018-03-11T21:05:47.952Z,3.90
2018-03-11T21:10:51.117Z,3.85
2018-03-11T21:15:55.350Z,4.40
2018-03-11T21:20:59.272Z,4.30
2018-03-11T21:26:02.360Z,3.57
2018-03-11T21:31:05.493Z,4.10
2018-03-11T21:36:09.716Z,3.83
2018-03-11T21:41:13.944Z,4.40
2018-03-11T21:46:17.044Z,4.10
2018-03-11T21:51:20.121Z,4.50
2018-03-11T21:56:23.224Z,4.10
2018-03-11T22:01:26.317Z,4.30
2018-03-11T22:06:30.978Z,5.00
2018-03-11T22:11:35.294Z,4.68
2018-03-11T22:16:38.386Z,4.40
2018-03-11T22:21:41.582Z,4.73
2018-03-11T22:26:44.693Z,4.60
2018-03-11T22:31:49.652Z,4.33
2018-03-11T22:36:54.100Z,5.50
2018-03-11T22:41:57.196Z,7.07
2018-03-11T22:47:01.644Z,5.00
2018-03-11T22:52:04.761Z,5.33
2018-03-11T22:57:07.861Z,6.05
2018-03-11T23:02:11.083Z,4.82
2018-03-11T23:07:14.264Z,5.03
2018-03-11T23:12:18.593Z,6.37
2018-03-11T23:17:21.317Z,5.70
2018-03-11T23:22:24.423Z,4.60
2018-03-11T23:27:27.507Z,4.40
2018-03-11T23:32:30.596Z,4.70
2018-03-11T23:37:33.709Z,4.00
2018-03-11T23:42:37.184Z,4.17
2018-03-11T23:47:41.632Z,3.83
2018-03-11T23:52:44.766Z,3.50
2018-03-11T23:57:49.004Z,3.60
